sensor_id;sensor_type;location;lat;lon;timestamp;P1;durP1;ratioP1;P2;durP2;ratioP2
173;SDS011;75;48.784;9.364;2023-02-13T00:01:03;139.27;;;46.67;;
173;SDS011;75;48.784;9.364;2023-02-13T00:03:48;133.13;;;46.10;;
173;SDS011;75;48.784;9.364;2023-02-13T00:06:33;126.73;;;44.50;;
173;SDS011;75;48.784;9.364;2023-02-13T00:09:17;153.17;;;47.30;;
173;SDS011;75;48.784;9.364;2023-02-13T00:12:02;147.43;;;47.90;;
173;SDS011;75;48.784;9.364;2023-02-13T00:14:47;138.10;;;47.83;;
173;SDS011;75;48.784;9.364;2023-02-13T00:17:32;124.43;;;46.40;;
173;SDS011;75;48.784;9.364;2023-02-13T00:20:16;112.23;;;46.90;;
173;SDS011;75;48.784;9.364;2023-02-13T00:23:01;121.77;;;47.77;;
173;SDS011;75;48.784;9.364;2023-02-13T00:25:45;137.17;;;48.40;;
173;SDS011;75;48.784;9.364;2023-02-13T00:28:30;118.83;;;46.90;;
173;SDS011;75;48.784;9.364;2023-02-13T00:31:16;141.80;;;50.43;;
173;SDS011;75;48.784;9.364;2023-02-13T00:34:01;146.00;;;52.60;;
173;SDS011;75;48.784;9.364;2023-02-13T00:36:46;146.73;;;51.17;;
173;SDS011;75;48.784;9.364;2023-02-13T00:39:31;180.67;;;64.93;;
173;SDS011;75;48.784;9.364;2023-02-13T00:42:15;137.00;;;49.30;;
173;SDS011;75;48.784;9.364;2023-02-13T00:45:00;139.13;;;52.37;;
173;SDS011;75;48.784;9.364;2023-02-13T00:47:44;148.23;;;48.70;;
173;SDS011;75;48.784;9.364;2023-02-13T00:50:29;163.97;;;57.00;;
173;SDS011;75;48.784;9.364;2023-02-13T00:53:14;159.63;;;52.90;;
173;SDS011;75;48.784;9.364;2023-02-13T00:55:59;140.63;;;50.87;;
173;SDS011;75;48.784;9.364;2023-02-13T00:58:44;157.17;;;52.07;;
173;SDS011;75;48.784;9.364;2023-02-13T01:01:28;144.77;;;49.57;;
173;SDS011;75;48.784;9.364;2023-02-13T01:04:13;149.40;;;51.30;;
173;SDS011;75;48.784;9.364;2023-02-13T01:06:58;170.40;;;52.80;;
173;SDS011;75;48.784;9.364;2023-02-13T01:09:42;166.97;;;51.10;;
173;SDS011;75;48.784;9.364;2023-02-13T01:12:27;172.67;;;53.50;;
173;SDS011;75;48.784;9.364;2023-02-13T01:15:12;165.37;;;51.17;;
173;SDS011;75;48.784;9.364;2023-02-13T01:17:57;159.73;;;46.70;;
173;SDS011;75;48.784;9.364;2023-02-13T01:20:42;147.73;;;46.60;;
173;SDS011;75;48.784;9.364;2023-02-13T01:23:35;181.60;;;47.10;;
173;SDS011;75;48.784;9.364;2023-02-13T01:26:21;169.37;;;47.43;;
173;SDS011;75;48.784;9.364;2023-02-13T01:29:06;151.50;;;48.60;;
173;SDS011;75;48.784;9.364;2023-02-13T01:31:51;166.40;;;47.60;;
173;SDS011;75;48.784;9.364;2023-02-13T01:34:36;151.43;;;50.20;;
173;SDS011;75;48.784;9.364;2023-02-13T01:37:20;178.93;;;48.40;;
173;SDS011;75;48.784;9.364;2023-02-13T01:40:06;152.20;;;48.97;;
173;SDS011;75;48.784;9.364;2023-02-13T01:42:51;141.40;;;45.17;;
173;SDS011;75;48.784;9.364;2023-02-13T01:45:35;140.63;;;49.37;;
173;SDS011;75;48.784;9.364;2023-02-13T01:48:21;144.73;;;48.20;;
173;SDS011;75;48.784;9.364;2023-02-13T01:51:07;155.87;;;46.27;;
173;SDS011;75;48.784;9.364;2023-02-13T01:53:58;143.00;;;43.77;;
173;SDS011;75;48.784;9.364;2023-02-13T01:56:48;133.97;;;41.27;;
173;SDS011;75;48.784;9.364;2023-02-13T01:59:47;141.07;;;42.80;;
173;SDS011;75;48.784;9.364;2023-02-13T02:02:34;142.50;;;43.23;;
173;SDS011;75;48.784;9.364;2023-02-13T02:05:39;137.93;;;40.33;;
173;SDS011;75;48.784;9.364;2023-02-13T02:08:24;132.47;;;40.33;;
173;SDS011;75;48.784;9.364;2023-02-13T02:11:10;137.27;;;40.23;;
173;SDS011;75;48.784;9.364;2023-02-13T02:13:59;135.90;;;43.40;;
173;SDS011;75;48.784;9.364;2023-02-13T02:16:45;139.60;;;38.70;;
173;SDS011;75;48.784;9.364;2023-02-13T02:19:51;148.30;;;39.23;;
173;SDS011;75;48.784;9.364;2023-02-13T02:28:49;139.57;;;43.57;;
173;SDS011;75;48.784;9.364;2023-02-13T02:34:37;147.30;;;45.50;;
173;SDS011;75;48.784;9.364;2023-02-13T02:37:29;125.33;;;36.93;;
173;SDS011;75;48.784;9.364;2023-02-13T02:40:25;151.30;;;44.40;;
173;SDS011;75;48.784;9.364;2023-02-13T02:43:29;145.20;;;42.23;;
173;SDS011;75;48.784;9.364;2023-02-13T02:46:18;141.77;;;42.83;;
173;SDS011;75;48.784;9.364;2023-02-13T02:49:11;132.43;;;47.23;;
173;SDS011;75;48.784;9.364;2023-02-13T02:52:17;126.00;;;40.63;;
173;SDS011;75;48.784;9.364;2023-02-13T02:55:06;121.37;;;41.90;;
173;SDS011;75;48.784;9.364;2023-02-13T02:58:01;117.50;;;37.00;;
173;SDS011;75;48.784;9.364;2023-02-13T03:01:09;138.60;;;41.57;;
173;SDS011;75;48.784;9.364;2023-02-13T03:04:19;116.27;;;41.27;;
173;SDS011;75;48.784;9.364;2023-02-13T03:07:25;128.43;;;41.57;;
173;SDS011;75;48.784;9.364;2023-02-13T03:10:12;129.13;;;41.77;;
173;SDS011;75;48.784;9.364;2023-02-13T03:16:20;119.53;;;34.00;;
173;SDS011;75;48.784;9.364;2023-02-13T03:19:31;125.80;;;38.93;;
173;SDS011;75;48.784;9.364;2023-02-13T03:22:41;160.47;;;45.97;;
173;SDS011;75;48.784;9.364;2023-02-13T03:25:35;152.10;;;42.87;;
173;SDS011;75;48.784;9.364;2023-02-13T03:31:44;129.57;;;38.20;;
173;SDS011;75;48.784;9.364;2023-02-13T03:34:33;147.57;;;43.70;;
173;SDS011;75;48.784;9.364;2023-02-13T03:37:38;120.77;;;41.43;;
173;SDS011;75;48.784;9.364;2023-02-13T03:40:47;120.43;;;41.33;;
173;SDS011;75;48.784;9.364;2023-02-13T03:46:52;122.93;;;35.47;;
173;SDS011;75;48.784;9.364;2023-02-13T03:49:48;117.50;;;37.57;;
173;SDS011;75;48.784;9.364;2023-02-13T03:52:57;124.17;;;37.83;;
173;SDS011;75;48.784;9.364;2023-02-13T03:55:44;103.43;;;33.53;;
173;SDS011;75;48.784;9.364;2023-02-13T03:58:49;108.97;;;35.03;;
173;SDS011;75;48.784;9.364;2023-02-13T04:01:58;114.63;;;35.10;;
173;SDS011;75;48.784;9.364;2023-02-13T04:07:31;133.20;;;38.17;;
173;SDS011;75;48.784;9.364;2023-02-13T04:10:16;137.37;;;37.00;;
173;SDS011;75;48.784;9.364;2023-02-13T04:13:11;124.47;;;39.53;;
173;SDS011;75;48.784;9.364;2023-02-13T04:16:00;127.83;;;35.67;;
173;SDS011;75;48.784;9.364;2023-02-13T04:18:46;147.17;;;40.67;;
173;SDS011;75;48.784;9.364;2023-02-13T04:21:32;145.33;;;38.40;;
173;SDS011;75;48.784;9.364;2023-02-13T04:24:17;127.90;;;39.47;;
173;SDS011;75;48.784;9.364;2023-02-13T04:27:02;122.40;;;39.60;;
173;SDS011;75;48.784;9.364;2023-02-13T04:29:47;105.53;;;33.70;;
173;SDS011;75;48.784;9.364;2023-02-13T04:32:31;124.67;;;37.67;;
173;SDS011;75;48.784;9.364;2023-02-13T04:35:16;117.43;;;38.43;;
173;SDS011;75;48.784;9.364;2023-02-13T04:38:00;114.93;;;35.77;;
173;SDS011;75;48.784;9.364;2023-02-13T04:40:45;100.27;;;34.97;;
173;SDS011;75;48.784;9.364;2023-02-13T04:43:30;105.23;;;33.47;;
173;SDS011;75;48.784;9.364;2023-02-13T04:46:15;106.80;;;36.60;;
173;SDS011;75;48.784;9.364;2023-02-13T04:48:59;93.83;;;28.60;;
173;SDS011;75;48.784;9.364;2023-02-13T04:51:44;99.17;;;32.47;;
173;SDS011;75;48.784;9.364;2023-02-13T04:54:28;111.67;;;33.13;;
173;SDS011;75;48.784;9.364;2023-02-13T04:57:13;102.53;;;33.10;;
173;SDS011;75;48.784;9.364;2023-02-13T04:59:58;133.07;;;41.07;;
173;SDS011;75;48.784;9.364;2023-02-13T05:02:42;199.00;;;57.57;;
173;SDS011;75;48.784;9.364;2023-02-13T05:05:27;194.10;;;54.40;;
173;SDS011;75;48.784;9.364;2023-02-13T05:08:12;136.07;;;45.10;;
173;SDS011;75;48.784;9.364;2023-02-13T05:10:56;128.47;;;46.30;;
173;SDS011;75;48.784;9.364;2023-02-13T05:13:41;118.97;;;42.43;;
173;SDS011;75;48.784;9.364;2023-02-13T05:16:26;107.53;;;38.57;;
173;SDS011;75;48.784;9.364;2023-02-13T05:19:10;97.03;;;32.67;;
173;SDS011;75;48.784;9.364;2023-02-13T05:21:55;103.10;;;34.57;;
173;SDS011;75;48.784;9.364;2023-02-13T05:24:58;98.63;;;34.03;;
173;SDS011;75;48.784;9.364;2023-02-13T05:27:43;97.83;;;35.77;;
173;SDS011;75;48.784;9.364;2023-02-13T05:30:28;101.17;;;36.67;;
173;SDS011;75;48.784;9.364;2023-02-13T05:33:12;89.73;;;33.70;;
173;SDS011;75;48.784;9.364;2023-02-13T05:35:57;102.20;;;36.93;;
173;SDS011;75;48.784;9.364;2023-02-13T05:38:42;100.67;;;35.87;;
173;SDS011;75;48.784;9.364;2023-02-13T05:41:26;83.07;;;30.70;;
173;SDS011;75;48.784;9.364;2023-02-13T05:44:11;95.27;;;34.37;;
173;SDS011;75;48.784;9.364;2023-02-13T05:46:56;94.17;;;31.77;;
173;SDS011;75;48.784;9.364;2023-02-13T05:49:40;100.13;;;37.00;;
173;SDS011;75;48.784;9.364;2023-02-13T05:52:25;112.50;;;38.10;;
173;SDS011;75;48.784;9.364;2023-02-13T05:55:10;96.13;;;36.10;;
173;SDS011;75;48.784;9.364;2023-02-13T05:57:55;85.30;;;31.77;;
173;SDS011;75;48.784;9.364;2023-02-13T06:00:40;86.13;;;34.23;;
173;SDS011;75;48.784;9.364;2023-02-13T06:03:25;92.00;;;34.50;;
173;SDS011;75;48.784;9.364;2023-02-13T06:06:10;63.30;;;24.63;;
173;SDS011;75;48.784;9.364;2023-02-13T06:08:54;74.50;;;31.07;;
173;SDS011;75;48.784;9.364;2023-02-13T06:11:39;88.67;;;34.60;;
173;SDS011;75;48.784;9.364;2023-02-13T06:14:24;115.87;;;41.27;;
173;SDS011;75;48.784;9.364;2023-02-13T06:17:08;100.93;;;38.07;;
173;SDS011;75;48.784;9.364;2023-02-13T06:19:53;92.83;;;35.57;;
173;SDS011;75;48.784;9.364;2023-02-13T06:22:37;84.17;;;31.23;;
173;SDS011;75;48.784;9.364;2023-02-13T06:25:22;88.60;;;36.60;;
173;SDS011;75;48.784;9.364;2023-02-13T06:28:07;111.20;;;44.07;;
173;SDS011;75;48.784;9.364;2023-02-13T06:30:52;108.30;;;44.87;;
173;SDS011;75;48.784;9.364;2023-02-13T06:33:37;123.57;;;48.80;;
173;SDS011;75;48.784;9.364;2023-02-13T06:36:21;120.27;;;46.90;;
173;SDS011;75;48.784;9.364;2023-02-13T06:39:07;98.93;;;41.80;;
173;SDS011;75;48.784;9.364;2023-02-13T06:41:52;114.47;;;49.63;;
173;SDS011;75;48.784;9.364;2023-02-13T06:44:37;99.57;;;47.03;;
173;SDS011;75;48.784;9.364;2023-02-13T06:47:21;87.63;;;38.67;;
173;SDS011;75;48.784;9.364;2023-02-13T06:50:06;100.23;;;40.90;;
173;SDS011;75;48.784;9.364;2023-02-13T06:52:51;89.40;;;33.63;;
173;SDS011;75;48.784;9.364;2023-02-13T06:55:35;81.30;;;37.60;;
173;SDS011;75;48.784;9.364;2023-02-13T06:58:23;84.63;;;39.30;;
173;SDS011;75;48.784;9.364;2023-02-13T07:01:08;88.10;;;34.83;;
173;SDS011;75;48.784;9.364;2023-02-13T07:03:52;90.03;;;33.30;;
173;SDS011;75;48.784;9.364;2023-02-13T07:06:37;83.27;;;34.97;;
173;SDS011;75;48.784;9.364;2023-02-13T07:09:22;80.93;;;34.30;;
173;SDS011;75;48.784;9.364;2023-02-13T07:12:07;88.47;;;40.97;;
173;SDS011;75;48.784;9.364;2023-02-13T07:14:52;131.17;;;64.37;;
173;SDS011;75;48.784;9.364;2023-02-13T07:17:36;98.50;;;45.23;;
173;SDS011;75;48.784;9.364;2023-02-13T07:20:21;104.37;;;46.30;;
173;SDS011;75;48.784;9.364;2023-02-13T07:23:06;97.67;;;44.37;;
173;SDS011;75;48.784;9.364;2023-02-13T07:25:51;105.47;;;44.07;;
173;SDS011;75;48.784;9.364;2023-02-13T07:28:36;93.93;;;45.10;;
173;SDS011;75;48.784;9.364;2023-02-13T07:31:20;96.13;;;41.93;;
173;SDS011;75;48.784;9.364;2023-02-13T07:34:05;122.03;;;53.20;;
173;SDS011;75;48.784;9.364;2023-02-13T07:36:50;89.73;;;41.40;;
173;SDS011;75;48.784;9.364;2023-02-13T07:39:34;114.50;;;53.13;;
173;SDS011;75;48.784;9.364;2023-02-13T07:42:21;163.40;;;77.10;;
173;SDS011;75;48.784;9.364;2023-02-13T07:45:06;137.90;;;68.67;;
173;SDS011;75;48.784;9.364;2023-02-13T07:47:53;138.60;;;68.47;;
173;SDS011;75;48.784;9.364;2023-02-13T07:50:38;108.73;;;53.23;;
173;SDS011;75;48.784;9.364;2023-02-13T07:53:23;111.50;;;51.97;;
173;SDS011;75;48.784;9.364;2023-02-13T07:56:08;96.87;;;46.97;;
173;SDS011;75;48.784;9.364;2023-02-13T07:58:53;100.63;;;46.23;;
173;SDS011;75;48.784;9.364;2023-02-13T08:01:37;103.50;;;48.60;;
173;SDS011;75;48.784;9.364;2023-02-13T08:04:22;101.27;;;46.90;;
173;SDS011;75;48.784;9.364;2023-02-13T08:07:06;110.20;;;50.70;;
173;SDS011;75;48.784;9.364;2023-02-13T08:09:51;107.30;;;48.10;;
173;SDS011;75;48.784;9.364;2023-02-13T08:12:55;101.30;;;47.03;;
173;SDS011;75;48.784;9.364;2023-02-13T08:15:39;104.67;;;46.53;;
173;SDS011;75;48.784;9.364;2023-02-13T08:18:27;109.43;;;46.33;;
173;SDS011;75;48.784;9.364;2023-02-13T08:21:11;98.00;;;45.80;;
173;SDS011;75;48.784;9.364;2023-02-13T08:23:57;89.63;;;45.00;;
173;SDS011;75;48.784;9.364;2023-02-13T08:26:42;110.70;;;51.00;;
173;SDS011;75;48.784;9.364;2023-02-13T08:29:26;99.53;;;49.67;;
173;SDS011;75;48.784;9.364;2023-02-13T08:32:11;103.43;;;49.07;;
173;SDS011;75;48.784;9.364;2023-02-13T08:34:56;128.23;;;51.27;;
173;SDS011;75;48.784;9.364;2023-02-13T08:37:41;111.70;;;49.87;;
173;SDS011;75;48.784;9.364;2023-02-13T08:40:25;100.60;;;46.33;;
173;SDS011;75;48.784;9.364;2023-02-13T08:43:10;85.23;;;41.50;;
173;SDS011;75;48.784;9.364;2023-02-13T08:45:57;69.27;;;35.60;;
173;SDS011;75;48.784;9.364;2023-02-13T08:48:42;55.27;;;29.33;;
173;SDS011;75;48.784;9.364;2023-02-13T08:51:27;46.37;;;24.93;;
173;SDS011;75;48.784;9.364;2023-02-13T08:54:11;44.03;;;23.47;;
173;SDS011;75;48.784;9.364;2023-02-13T08:56:56;42.40;;;23.73;;
173;SDS011;75;48.784;9.364;2023-02-13T08:59:41;40.50;;;22.80;;
173;SDS011;75;48.784;9.364;2023-02-13T09:02:25;56.40;;;32.80;;
173;SDS011;75;48.784;9.364;2023-02-13T09:05:10;77.10;;;40.60;;
173;SDS011;75;48.784;9.364;2023-02-13T09:07:55;250.03;;;109.77;;
173;SDS011;75;48.784;9.364;2023-02-13T09:10:40;102.83;;;47.23;;
173;SDS011;75;48.784;9.364;2023-02-13T09:13:29;40.57;;;24.23;;
173;SDS011;75;48.784;9.364;2023-02-13T09:16:16;41.03;;;22.30;;
173;SDS011;75;48.784;9.364;2023-02-13T09:19:01;38.23;;;22.00;;
173;SDS011;75;48.784;9.364;2023-02-13T09:21:46;42.53;;;22.67;;
173;SDS011;75;48.784;9.364;2023-02-13T09:24:31;42.57;;;22.40;;
173;SDS011;75;48.784;9.364;2023-02-13T09:27:15;37.10;;;20.90;;
173;SDS011;75;48.784;9.364;2023-02-13T09:30:00;41.17;;;23.10;;
173;SDS011;75;48.784;9.364;2023-02-13T09:32:45;38.10;;;21.23;;
173;SDS011;75;48.784;9.364;2023-02-13T09:35:29;39.03;;;22.30;;
173;SDS011;75;48.784;9.364;2023-02-13T09:38:14;41.33;;;22.07;;
173;SDS011;75;48.784;9.364;2023-02-13T09:40:59;36.77;;;20.60;;
173;SDS011;75;48.784;9.364;2023-02-13T09:43:52;38.07;;;20.43;;
173;SDS011;75;48.784;9.364;2023-02-13T09:46:38;39.43;;;22.70;;
173;SDS011;75;48.784;9.364;2023-02-13T09:49:23;38.87;;;21.73;;
173;SDS011;75;48.784;9.364;2023-02-13T09:52:11;35.97;;;21.30;;
173;SDS011;75;48.784;9.364;2023-02-13T09:54:56;34.60;;;19.47;;
173;SDS011;75;48.784;9.364;2023-02-13T10:00:45;37.50;;;20.77;;
173;SDS011;75;48.784;9.364;2023-02-13T10:03:38;32.30;;;19.70;;
173;SDS011;75;48.784;9.364;2023-02-13T10:06:30;35.00;;;19.60;;
173;SDS011;75;48.784;9.364;2023-02-13T10:09:19;33.90;;;19.50;;
173;SDS011;75;48.784;9.364;2023-02-13T10:12:12;34.50;;;19.40;;
173;SDS011;75;48.784;9.364;2023-02-13T10:17:53;33.60;;;19.40;;
173;SDS011;75;48.784;9.364;2023-02-13T10:20:44;35.23;;;21.40;;
173;SDS011;75;48.784;9.364;2023-02-13T10:23:38;34.93;;;19.67;;
173;SDS011;75;48.784;9.364;2023-02-13T10:26:27;38.00;;;20.53;;
173;SDS011;75;48.784;9.364;2023-02-13T10:29:33;38.50;;;20.20;;
173;SDS011;75;48.784;9.364;2023-02-13T10:32:45;36.30;;;20.50;;
173;SDS011;75;48.784;9.364;2023-02-13T10:35:31;28.03;;;17.10;;
173;SDS011;75;48.784;9.364;2023-02-13T10:38:17;31.40;;;18.10;;
173;SDS011;75;48.784;9.364;2023-02-13T10:41:23;31.37;;;18.83;;
173;SDS011;75;48.784;9.364;2023-02-13T10:44:15;30.97;;;18.57;;
173;SDS011;75;48.784;9.364;2023-02-13T10:53:04;32.07;;;18.20;;
173;SDS011;75;48.784;9.364;2023-02-13T10:58:38;28.23;;;16.87;;
173;SDS011;75;48.784;9.364;2023-02-13T11:01:34;30.63;;;16.97;;
173;SDS011;75;48.784;9.364;2023-02-13T11:04:22;30.37;;;18.00;;
173;SDS011;75;48.784;9.364;2023-02-13T11:07:08;28.63;;;16.97;;
173;SDS011;75;48.784;9.364;2023-02-13T11:09:57;30.27;;;17.43;;
173;SDS011;75;48.784;9.364;2023-02-13T11:12:42;34.50;;;20.50;;
173;SDS011;75;48.784;9.364;2023-02-13T11:15:28;27.70;;;17.20;;
173;SDS011;75;48.784;9.364;2023-02-13T11:18:17;28.30;;;16.87;;
173;SDS011;75;48.784;9.364;2023-02-13T11:21:07;26.63;;;16.07;;
173;SDS011;75;48.784;9.364;2023-02-13T11:23:53;25.37;;;15.27;;
173;SDS011;75;48.784;9.364;2023-02-13T11:26:41;27.00;;;17.20;;
173;SDS011;75;48.784;9.364;2023-02-13T11:29:30;28.77;;;16.40;;
173;SDS011;75;48.784;9.364;2023-02-13T11:32:18;26.47;;;16.23;;
173;SDS011;75;48.784;9.364;2023-02-13T11:38:11;26.83;;;15.43;;
173;SDS011;75;48.784;9.364;2023-02-13T11:43:55;20.90;;;12.43;;
173;SDS011;75;48.784;9.364;2023-02-13T11:46:45;20.03;;;12.03;;
173;SDS011;75;48.784;9.364;2023-02-13T11:49:30;18.23;;;10.73;;
173;SDS011;75;48.784;9.364;2023-02-13T11:52:24;17.33;;;11.10;;
173;SDS011;75;48.784;9.364;2023-02-13T11:55:27;17.07;;;10.90;;
173;SDS011;75;48.784;9.364;2023-02-13T12:04:13;18.40;;;11.27;;
173;SDS011;75;48.784;9.364;2023-02-13T12:09:46;15.00;;;9.63;;
173;SDS011;75;48.784;9.364;2023-02-13T12:12:36;15.73;;;9.70;;
173;SDS011;75;48.784;9.364;2023-02-13T12:15:26;15.10;;;10.20;;
173;SDS011;75;48.784;9.364;2023-02-13T12:21:23;16.07;;;10.27;;
173;SDS011;75;48.784;9.364;2023-02-13T12:32:44;16.00;;;9.33;;
173;SDS011;75;48.784;9.364;2023-02-13T12:38:28;13.33;;;8.90;;
173;SDS011;75;48.784;9.364;2023-02-13T12:41:19;14.07;;;9.70;;
173;SDS011;75;48.784;9.364;2023-02-13T12:44:15;20.10;;;9.13;;
173;SDS011;75;48.784;9.364;2023-02-13T12:50:12;13.80;;;8.73;;
173;SDS011;75;48.784;9.364;2023-02-13T12:53:21;16.90;;;10.57;;
173;SDS011;75;48.784;9.364;2023-02-13T12:58:59;20.27;;;9.43;;
173;SDS011;75;48.784;9.364;2023-02-13T13:19:43;17.10;;;9.60;;
173;SDS011;75;48.784;9.364;2023-02-13T13:22:43;29.33;;;10.37;;
173;SDS011;75;48.784;9.364;2023-02-13T13:28:34;19.30;;;8.97;;
173;SDS011;75;48.784;9.364;2023-02-13T13:31:20;22.47;;;11.07;;
173;SDS011;75;48.784;9.364;2023-02-13T13:34:12;18.03;;;9.80;;
173;SDS011;75;48.784;9.364;2023-02-13T13:45:35;14.87;;;9.33;;
173;SDS011;75;48.784;9.364;2023-02-13T13:51:26;24.63;;;10.87;;
173;SDS011;75;48.784;9.364;2023-02-13T14:02:47;16.87;;;10.20;;
173;SDS011;75;48.784;9.364;2023-02-13T14:05:32;15.27;;;10.20;;
173;SDS011;75;48.784;9.364;2023-02-13T14:11:36;15.30;;;9.90;;
173;SDS011;75;48.784;9.364;2023-02-13T14:17:13;16.20;;;10.10;;
173;SDS011;75;48.784;9.364;2023-02-13T14:19:58;14.53;;;9.00;;
173;SDS011;75;48.784;9.364;2023-02-13T14:22:43;21.53;;;10.67;;
173;SDS011;75;48.784;9.364;2023-02-13T14:25:28;13.60;;;8.97;;
173;SDS011;75;48.784;9.364;2023-02-13T14:28:22;15.50;;;9.90;;
173;SDS011;75;48.784;9.364;2023-02-13T14:31:22;15.40;;;9.40;;
173;SDS011;75;48.784;9.364;2023-02-13T14:37:04;16.40;;;10.20;;
173;SDS011;75;48.784;9.364;2023-02-13T14:45:50;16.20;;;10.00;;
173;SDS011;75;48.784;9.364;2023-02-13T14:51:31;23.00;;;13.57;;
173;SDS011;75;48.784;9.364;2023-02-13T14:54:19;19.60;;;12.20;;
173;SDS011;75;48.784;9.364;2023-02-13T14:57:06;23.30;;;11.03;;
173;SDS011;75;48.784;9.364;2023-02-13T14:59:54;28.70;;;11.60;;
173;SDS011;75;48.784;9.364;2023-02-13T15:02:50;18.43;;;11.13;;
173;SDS011;75;48.784;9.364;2023-02-13T15:05:36;17.80;;;10.70;;
173;SDS011;75;48.784;9.364;2023-02-13T15:08:22;20.30;;;11.20;;
173;SDS011;75;48.784;9.364;2023-02-13T15:11:08;18.67;;;10.67;;
173;SDS011;75;48.784;9.364;2023-02-13T15:17:13;18.73;;;11.60;;
173;SDS011;75;48.784;9.364;2023-02-13T15:20:04;17.37;;;10.93;;
173;SDS011;75;48.784;9.364;2023-02-13T15:22:50;19.50;;;12.17;;
173;SDS011;75;48.784;9.364;2023-02-13T15:25:36;22.07;;;12.30;;
173;SDS011;75;48.784;9.364;2023-02-13T15:28:22;21.70;;;13.50;;
173;SDS011;75;48.784;9.364;2023-02-13T15:31:21;23.67;;;12.80;;
173;SDS011;75;48.784;9.364;2023-02-13T15:34:26;28.17;;;16.77;;
173;SDS011;75;48.784;9.364;2023-02-13T15:37:22;27.33;;;16.10;;
173;SDS011;75;48.784;9.364;2023-02-13T15:40:13;33.70;;;19.17;;
173;SDS011;75;48.784;9.364;2023-02-13T15:42:59;23.87;;;14.07;;
173;SDS011;75;48.784;9.364;2023-02-13T15:45:44;25.03;;;14.43;;
173;SDS011;75;48.784;9.364;2023-02-13T15:48:29;23.37;;;14.63;;
173;SDS011;75;48.784;9.364;2023-02-13T15:51:18;53.13;;;30.30;;
173;SDS011;75;48.784;9.364;2023-02-13T15:54:18;25.53;;;16.20;;
173;SDS011;75;48.784;9.364;2023-02-13T15:57:05;25.90;;;16.70;;
173;SDS011;75;48.784;9.364;2023-02-13T15:59:49;28.70;;;14.60;;
173;SDS011;75;48.784;9.364;2023-02-13T16:02:38;22.90;;;13.70;;
173;SDS011;75;48.784;9.364;2023-02-13T16:05:25;23.80;;;13.70;;
173;SDS011;75;48.784;9.364;2023-02-13T16:08:23;24.20;;;14.60;;
173;SDS011;75;48.784;9.364;2023-02-13T16:11:26;24.57;;;14.20;;
173;SDS011;75;48.784;9.364;2023-02-13T16:14:14;24.60;;;14.80;;
173;SDS011;75;48.784;9.364;2023-02-13T16:17:04;25.77;;;14.20;;
173;SDS011;75;48.784;9.364;2023-02-13T16:28:22;24.93;;;14.70;;
173;SDS011;75;48.784;9.364;2023-02-13T16:31:11;23.17;;;14.73;;
173;SDS011;75;48.784;9.364;2023-02-13T16:33:57;24.10;;;14.60;;
173;SDS011;75;48.784;9.364;2023-02-13T16:36:42;22.40;;;14.20;;
173;SDS011;75;48.784;9.364;2023-02-13T16:39:27;24.93;;;15.07;;
173;SDS011;75;48.784;9.364;2023-02-13T16:42:16;26.33;;;15.40;;
173;SDS011;75;48.784;9.364;2023-02-13T16:48:09;24.70;;;15.13;;
173;SDS011;75;48.784;9.364;2023-02-13T16:50:55;26.23;;;15.47;;
173;SDS011;75;48.784;9.364;2023-02-13T16:53:39;26.27;;;15.43;;
173;SDS011;75;48.784;9.364;2023-02-13T16:56:24;27.37;;;15.70;;
173;SDS011;75;48.784;9.364;2023-02-13T16:59:17;37.30;;;17.43;;
173;SDS011;75;48.784;9.364;2023-02-13T17:05:22;32.90;;;17.90;;
173;SDS011;75;48.784;9.364;2023-02-13T17:08:07;31.23;;;17.37;;
173;SDS011;75;48.784;9.364;2023-02-13T17:11:02;31.30;;;18.40;;
173;SDS011;75;48.784;9.364;2023-02-13T17:13:48;31.77;;;17.83;;
173;SDS011;75;48.784;9.364;2023-02-13T17:16:33;36.47;;;18.37;;
173;SDS011;75;48.784;9.364;2023-02-13T17:19:17;32.40;;;18.80;;
173;SDS011;75;48.784;9.364;2023-02-13T17:22:02;35.07;;;19.63;;
173;SDS011;75;48.784;9.364;2023-02-13T17:24:47;34.20;;;19.10;;
173;SDS011;75;48.784;9.364;2023-02-13T17:27:32;34.27;;;19.40;;
173;SDS011;75;48.784;9.364;2023-02-13T17:30:18;36.03;;;20.50;;
173;SDS011;75;48.784;9.364;2023-02-13T17:33:04;38.07;;;20.77;;
173;SDS011;75;48.784;9.364;2023-02-13T17:35:49;35.60;;;19.43;;
173;SDS011;75;48.784;9.364;2023-02-13T17:38:34;38.93;;;20.93;;
173;SDS011;75;48.784;9.364;2023-02-13T17:41:19;37.37;;;20.57;;
173;SDS011;75;48.784;9.364;2023-02-13T17:44:04;39.47;;;20.70;;
173;SDS011;75;48.784;9.364;2023-02-13T17:46:48;42.87;;;22.00;;
173;SDS011;75;48.784;9.364;2023-02-13T17:49:33;46.90;;;24.10;;
173;SDS011;75;48.784;9.364;2023-02-13T17:52:19;40.63;;;21.37;;
173;SDS011;75;48.784;9.364;2023-02-13T17:55:04;41.03;;;21.63;;
173;SDS011;75;48.784;9.364;2023-02-13T17:57:49;46.13;;;23.97;;
173;SDS011;75;48.784;9.364;2023-02-13T18:00:34;43.50;;;23.60;;
173;SDS011;75;48.784;9.364;2023-02-13T18:03:19;43.53;;;22.30;;
173;SDS011;75;48.784;9.364;2023-02-13T18:06:05;45.80;;;23.03;;
173;SDS011;75;48.784;9.364;2023-02-13T18:08:50;46.70;;;23.33;;
173;SDS011;75;48.784;9.364;2023-02-13T18:11:34;43.90;;;22.40;;
173;SDS011;75;48.784;9.364;2023-02-13T18:14:19;44.77;;;23.00;;
173;SDS011;75;48.784;9.364;2023-02-13T18:17:04;45.00;;;23.57;;
173;SDS011;75;48.784;9.364;2023-02-13T18:19:48;48.27;;;23.50;;
173;SDS011;75;48.784;9.364;2023-02-13T18:22:33;45.30;;;24.10;;
173;SDS011;75;48.784;9.364;2023-02-13T18:25:18;45.10;;;23.90;;
173;SDS011;75;48.784;9.364;2023-02-13T18:28:03;48.67;;;24.03;;
173;SDS011;75;48.784;9.364;2023-02-13T18:30:48;47.83;;;23.60;;
173;SDS011;75;48.784;9.364;2023-02-13T18:33:33;44.70;;;23.23;;
173;SDS011;75;48.784;9.364;2023-02-13T18:36:17;47.17;;;23.60;;
173;SDS011;75;48.784;9.364;2023-02-13T18:39:02;45.83;;;23.80;;
173;SDS011;75;48.784;9.364;2023-02-13T18:41:47;51.83;;;26.20;;
173;SDS011;75;48.784;9.364;2023-02-13T18:44:31;52.77;;;24.43;;
173;SDS011;75;48.784;9.364;2023-02-13T18:47:16;47.80;;;25.17;;
173;SDS011;75;48.784;9.364;2023-02-13T18:50:01;65.50;;;33.33;;
173;SDS011;75;48.784;9.364;2023-02-13T18:52:45;66.53;;;33.77;;
173;SDS011;75;48.784;9.364;2023-02-13T18:55:30;60.63;;;31.20;;
173;SDS011;75;48.784;9.364;2023-02-13T18:58:14;62.53;;;30.17;;
173;SDS011;75;48.784;9.364;2023-02-13T19:01:03;74.13;;;35.30;;
173;SDS011;75;48.784;9.364;2023-02-13T19:03:49;59.63;;;30.57;;
173;SDS011;75;48.784;9.364;2023-02-13T19:06:34;62.67;;;30.53;;
173;SDS011;75;48.784;9.364;2023-02-13T19:09:22;57.60;;;30.20;;
173;SDS011;75;48.784;9.364;2023-02-13T19:12:06;60.73;;;30.07;;
173;SDS011;75;48.784;9.364;2023-02-13T19:14:51;66.23;;;33.20;;
173;SDS011;75;48.784;9.364;2023-02-13T19:17:36;78.20;;;36.73;;
173;SDS011;75;48.784;9.364;2023-02-13T19:20:22;60.77;;;30.50;;
173;SDS011;75;48.784;9.364;2023-02-13T19:23:06;60.40;;;30.67;;
173;SDS011;75;48.784;9.364;2023-02-13T19:25:51;63.37;;;30.40;;
173;SDS011;75;48.784;9.364;2023-02-13T19:28:36;61.67;;;31.27;;
173;SDS011;75;48.784;9.364;2023-02-13T19:31:21;54.73;;;27.10;;
173;SDS011;75;48.784;9.364;2023-02-13T19:34:06;61.60;;;29.20;;
173;SDS011;75;48.784;9.364;2023-02-13T19:36:51;63.50;;;31.27;;
173;SDS011;75;48.784;9.364;2023-02-13T19:39:36;60.27;;;29.10;;
173;SDS011;75;48.784;9.364;2023-02-13T19:42:20;62.67;;;30.27;;
173;SDS011;75;48.784;9.364;2023-02-13T19:45:05;66.27;;;32.43;;
173;SDS011;75;48.784;9.364;2023-02-13T19:47:50;63.00;;;29.93;;
173;SDS011;75;48.784;9.364;2023-02-13T19:50:37;62.13;;;29.83;;
173;SDS011;75;48.784;9.364;2023-02-13T19:53:24;60.00;;;29.00;;
173;SDS011;75;48.784;9.364;2023-02-13T19:56:09;61.30;;;30.50;;
173;SDS011;75;48.784;9.364;2023-02-13T19:58:54;65.37;;;29.73;;
173;SDS011;75;48.784;9.364;2023-02-13T20:01:39;59.93;;;29.47;;